createdAt,value
2023-02-15T00:00:09.336Z,101231.09
2023-02-15T00:02:36.124Z,101227.84
2023-02-15T00:05:02.933Z,101233.19
2023-02-15T00:07:29.683Z,101229.94
2023-02-15T00:09:56.369Z,101230.59
2023-02-15T00:12:23.168Z,101226.50
2023-02-15T00:14:49.934Z,101230.72
2023-02-15T00:17:16.763Z,101225.84
2023-02-15T00:19:43.487Z,101215.13
2023-02-15T00:22:10.413Z,101207.97
2023-02-15T00:24:37.112Z,101203.91
2023-02-15T00:27:03.988Z,101205.56
2023-02-15T00:29:30.862Z,101195.47
2023-02-15T00:31:57.579Z,101201.31
2023-02-15T00:34:27.886Z,101196.09
2023-02-15T00:36:54.660Z,101193.34
2023-02-15T00:39:22.604Z,101184.56
2023-02-15T00:41:49.446Z,101175.81
2023-02-15T00:44:16.633Z,101171.75
2023-02-15T00:46:43.525Z,101166.88
2023-02-15T00:49:11.024Z,101167.50
2023-02-15T00:51:38.099Z,101157.06
2023-02-15T00:54:04.852Z,101157.06
2023-02-15T00:56:31.592Z,101151.56
2023-02-15T00:58:58.406Z,101153.00
2023-02-15T01:01:27.011Z,101149.13
2023-02-15T01:03:54.379Z,101141.16
2023-02-15T01:06:21.366Z,101126.88
2023-02-15T01:08:48.358Z,101131.28
2023-02-15T01:11:23.381Z,101128.50
2023-02-15T01:13:56.841Z,101123.63
2023-02-15T01:16:25.594Z,101119.25
2023-02-15T01:18:53.151Z,101114.88
2023-02-15T01:21:22.722Z,101111.63
2023-02-15T01:23:50.164Z,101107.53
2023-02-15T01:26:17.905Z,101106.75
2023-02-15T01:28:45.156Z,101092.44
2023-02-15T01:31:15.362Z,101083.38
2023-02-15T01:33:42.792Z,101078.66
2023-02-15T01:36:09.663Z,101081.41
2023-02-15T01:38:37.089Z,101081.41
2023-02-15T01:41:23.113Z,101065.69
2023-02-15T01:44:03.800Z,101064.09
2023-02-15T01:46:44.061Z,101062.94
2023-02-15T01:49:20.724Z,101059.34
2023-02-15T01:51:50.375Z,101049.97
2023-02-15T01:54:30.923Z,101034.53
2023-02-15T01:57:03.631Z,101027.91
2023-02-15T01:59:32.790Z,101016.38
2023-02-15T02:02:02.000Z,101012.47
2023-02-15T02:04:48.399Z,101007.63
2023-02-15T02:07:18.593Z,101007.94
2023-02-15T02:09:46.387Z,101008.75
2023-02-15T02:12:15.443Z,101002.75
2023-02-15T02:14:43.325Z,100993.97
2023-02-15T02:17:34.812Z,100984.09
2023-02-15T02:20:18.979Z,100989.63
2023-02-15T02:22:52.788Z,100984.09
2023-02-15T02:25:53.154Z,100972.25
2023-02-15T02:29:04.805Z,100962.03
2023-02-15T02:31:46.557Z,100965.28
2023-02-15T02:34:38.568Z,100952.63
2023-02-15T02:37:24.709Z,100948.75
2023-02-15T02:40:11.303Z,100937.72
2023-02-15T02:42:44.204Z,100939.34
2023-02-15T02:45:42.083Z,100932.69
2023-02-15T02:48:23.943Z,100932.38
2023-02-15T02:50:50.930Z,100939.50
2023-02-15T02:53:19.569Z,100941.94
2023-02-15T02:55:58.231Z,100934.50
2023-02-15T02:58:28.564Z,100936.44
2023-02-15T03:00:58.364Z,100921.50
2023-02-15T03:03:28.984Z,100919.88
2023-02-15T03:06:00.994Z,100907.22
2023-02-15T03:08:37.033Z,100896.19
2023-02-15T03:11:05.330Z,100900.88
2023-02-15T03:13:33.154Z,100900.09
2023-02-15T03:16:21.448Z,100888.56
2023-02-15T03:18:58.950Z,100872.03
2023-02-15T03:21:43.355Z,100865.22
2023-02-15T03:24:24.123Z,100862.16
2023-02-15T03:26:53.104Z,100855.00
2023-02-15T03:29:23.566Z,100846.72
2023-02-15T03:31:55.127Z,100839.75
2023-02-15T03:34:22.022Z,100826.78
2023-02-15T03:36:54.624Z,100829.19
2023-02-15T03:39:42.067Z,100806.84
2023-02-15T03:42:14.703Z,100807.31
2023-02-15T03:45:05.111Z,100801.97
2023-02-15T03:47:36.503Z,100800.81
2023-02-15T03:50:26.848Z,100808.78
2023-02-15T03:52:56.628Z,100791.56
2023-02-15T03:55:23.820Z,100782.63
2023-02-15T03:58:09.961Z,100790.75
2023-02-15T04:01:00.524Z,100800.47
2023-02-15T04:03:52.882Z,100810.66
2023-02-15T04:06:19.761Z,100801.09
2023-02-15T04:09:08.117Z,100810.81
2023-02-15T04:11:34.964Z,100823.28
2023-02-15T04:14:21.776Z,100821.47
2023-02-15T04:16:48.612Z,100823.72
2023-02-15T04:19:34.218Z,100819.16
2023-02-15T04:22:19.689Z,100809.41
2023-02-15T04:25:05.139Z,100805.19
2023-02-15T04:27:31.929Z,100799.31
2023-02-15T04:29:58.794Z,100796.72
2023-02-15T04:32:25.550Z,100798.81
2023-02-15T04:34:53.301Z,100796.53
2023-02-15T04:37:20.253Z,100800.56
2023-02-15T04:39:46.985Z,100796.69
2023-02-15T04:42:13.859Z,100807.06
2023-02-15T04:44:40.590Z,100800.88
2023-02-15T04:47:07.353Z,100787.84
2023-02-15T04:49:34.069Z,100776.50
2023-02-15T04:52:00.789Z,100787.34
2023-02-15T04:54:27.626Z,100775.94
2023-02-15T04:56:54.460Z,100768.94
2023-02-15T04:59:21.210Z,100784.38
2023-02-15T05:01:47.975Z,100767.47
2023-02-15T05:04:16.379Z,100762.75
2023-02-15T05:06:43.235Z,100761.63
2023-02-15T05:09:10.033Z,100759.69
2023-02-15T05:11:36.797Z,100749.91
2023-02-15T05:14:03.592Z,100788.59
2023-02-15T05:16:30.429Z,100876.47
2023-02-15T05:18:57.941Z,100891.13
2023-02-15T05:21:24.728Z,100885.41
2023-02-15T05:23:51.505Z,100898.78
2023-02-15T05:26:51.056Z,100896.53
2023-02-15T05:29:17.784Z,100895.53
2023-02-15T05:31:48.385Z,100907.53
2023-02-15T05:34:15.298Z,100909.47
2023-02-15T05:36:42.032Z,100918.88
2023-02-15T05:39:09.522Z,100909.47
2023-02-15T05:41:36.267Z,100918.53
2023-02-15T05:44:03.017Z,100915.94
2023-02-15T05:46:29.859Z,100911.06
2023-02-15T05:48:56.549Z,100909.91
2023-02-15T05:51:24.335Z,100907.59
2023-02-15T05:53:51.111Z,100911.34
2023-02-15T05:56:17.865Z,100906.78
2023-02-15T05:58:44.601Z,100911.28
2023-02-15T06:01:16.451Z,100918.44
2023-02-15T06:03:43.320Z,100923.94
2023-02-15T06:06:10.550Z,100941.09
2023-02-15T06:08:38.780Z,100941.72
2023-02-15T06:11:06.524Z,100939.59
2023-02-15T06:13:36.561Z,100937.69
2023-02-15T06:16:05.579Z,100948.38
2023-02-15T06:18:32.627Z,100964.91
2023-02-15T06:21:03.336Z,100950.63
2023-02-15T06:23:30.159Z,100947.72
2023-02-15T06:25:56.925Z,100951.91
2023-02-15T06:28:23.812Z,100951.72
2023-02-15T06:30:50.593Z,100953.16
2023-02-15T06:33:17.398Z,100949.41
2023-02-15T06:35:44.290Z,100939.84
2023-02-15T06:38:11.135Z,100947.63
2023-02-15T06:40:37.936Z,100967.84
2023-02-15T06:43:05.137Z,100966.19
2023-02-15T06:45:32.898Z,100958.09
2023-02-15T06:47:59.641Z,100950.97
2023-02-15T06:50:26.394Z,100957.59
2023-02-15T06:52:59.840Z,100965.03
2023-02-15T06:55:26.870Z,100960.97
2023-02-15T06:57:54.712Z,100969.56
2023-02-15T07:00:23.238Z,100972.94
2023-02-15T07:02:57.283Z,100970.19
2023-02-15T07:05:24.689Z,100977.13
2023-02-15T07:07:51.707Z,100970.31
2023-02-15T07:10:18.482Z,100971.22
2023-02-15T07:12:48.282Z,100963.94
2023-02-15T07:15:17.655Z,100962.63
2023-02-15T07:17:45.205Z,100951.13
2023-02-15T07:20:15.875Z,100960.47
2023-02-15T07:22:43.284Z,100963.56
2023-02-15T07:25:11.609Z,100957.25
2023-02-15T07:27:38.971Z,100954.00
2023-02-15T07:30:09.265Z,100952.69
2023-02-15T07:32:36.353Z,100945.06
2023-02-15T07:35:03.579Z,100945.34
2023-02-15T07:37:30.381Z,100941.00
2023-02-15T07:39:57.130Z,100922.56
2023-02-15T07:42:23.954Z,100915.63
2023-02-15T07:44:50.888Z,100925.19
2023-02-15T07:47:17.816Z,100927.31
2023-02-15T07:49:47.598Z,100911.94
2023-02-15T07:52:14.440Z,100910.00
2023-02-15T07:54:41.417Z,100907.53
2023-02-15T07:57:08.118Z,100911.09
2023-02-15T07:59:34.835Z,100909.47
2023-02-15T08:02:01.599Z,100905.94
2023-02-15T08:04:28.319Z,100909.47
2023-02-15T08:06:55.905Z,100914.47
2023-02-15T08:09:23.758Z,100924.38
2023-02-15T08:11:50.869Z,100929.53
2023-02-15T08:14:20.017Z,100925.97
2023-02-15T08:16:56.073Z,100923.22
2023-02-15T08:19:36.719Z,100924.84
2023-02-15T08:22:07.330Z,100917.44
2023-02-15T08:24:39.861Z,100942.19
2023-02-15T08:27:12.197Z,100935.84
2023-02-15T08:29:40.471Z,100939.09
2023-02-15T08:32:13.194Z,100942.66
2023-02-15T08:34:42.524Z,100947.88
2023-02-15T08:37:10.457Z,100947.88
2023-02-15T08:39:37.878Z,100948.38
2023-02-15T08:42:04.840Z,100959.88
2023-02-15T08:44:31.757Z,100947.41
2023-02-15T08:47:03.840Z,100964.13
2023-02-15T08:49:32.188Z,100961.53
2023-02-15T08:51:58.984Z,100958.97
2023-02-15T08:54:25.739Z,100962.22
2023-02-15T08:56:52.499Z,100958.03
2023-02-15T08:59:22.091Z,100969.22
2023-02-15T09:01:51.159Z,100967.47
2023-02-15T09:04:18.713Z,100981.09
2023-02-15T09:06:49.244Z,100981.28
2023-02-15T09:09:17.920Z,100977.69
2023-02-15T09:11:46.991Z,100984.34
2023-02-15T09:14:16.998Z,100979.34
2023-02-15T09:16:47.525Z,100982.09
2023-02-15T09:19:14.378Z,100986.47
2023-02-15T09:21:41.568Z,100988.22
2023-02-15T09:24:12.508Z,100992.75
2023-02-15T09:26:42.262Z,100981.53
2023-02-15T09:29:10.333Z,100984.63
2023-02-15T09:31:46.126Z,100989.59
2023-02-15T09:34:14.855Z,100981.34
2023-02-15T09:36:42.256Z,100987.88
2023-02-15T09:39:11.706Z,101003.75
2023-02-15T09:41:38.391Z,100987.41
2023-02-15T09:44:29.535Z,100995.38
2023-02-15T09:47:11.227Z,100994.75
2023-02-15T09:49:59.346Z,100992.47
2023-02-15T09:52:43.473Z,100990.69
2023-02-15T09:55:13.508Z,100999.97
2023-02-15T09:58:10.807Z,101001.28
2023-02-15T10:00:46.038Z,101010.22
2023-02-15T10:03:50.925Z,101006.22
2023-02-15T10:06:25.625Z,101014.50
2023-02-15T10:09:23.275Z,101005.16
2023-02-15T10:11:52.656Z,101006.31
2023-02-15T10:14:38.853Z,101016.56
2023-02-15T10:17:08.423Z,101018.34
2023-02-15T10:19:35.054Z,101012.22
2023-02-15T10:22:14.306Z,101020.16
2023-02-15T10:24:48.900Z,101020.81
2023-02-15T10:27:21.419Z,101030.56
2023-02-15T10:30:02.225Z,101017.94
2023-02-15T10:32:36.102Z,101019.28
2023-02-15T10:35:21.296Z,101019.28
2023-02-15T10:38:09.961Z,101024.06
2023-02-15T10:41:12.041Z,101016.28
2023-02-15T10:43:53.504Z,101021.97
2023-02-15T10:46:50.347Z,101021.78
2023-02-15T10:49:44.517Z,101011.88
2023-02-15T10:52:37.240Z,101010.59
2023-02-15T10:55:25.945Z,101001.66
2023-02-15T10:58:13.244Z,101007.66
2023-02-15T11:01:10.031Z,101004.72
2023-02-15T11:03:47.903Z,101021.78
2023-02-15T11:06:21.467Z,101022.25
2023-02-15T11:08:52.691Z,101026.63
2023-02-15T11:11:25.556Z,101027.31
2023-02-15T11:13:59.685Z,101021.28
2023-02-15T11:16:38.216Z,101018.22
2023-02-15T11:19:15.321Z,101023.38
2023-02-15T11:21:48.799Z,101032.84
2023-02-15T11:24:21.121Z,101039.97
2023-02-15T11:26:47.696Z,101027.13
2023-02-15T11:29:37.287Z,101027.97
2023-02-15T11:32:24.974Z,101032.84
2023-02-15T11:34:54.685Z,101028.09
2023-02-15T11:37:29.862Z,101033.78
2023-02-15T11:39:57.840Z,101033.31
2023-02-15T11:42:26.671Z,101043.19
2023-02-15T11:45:00.393Z,101041.25
2023-02-15T11:47:27.206Z,101052.00
2023-02-15T11:49:54.069Z,101046.94
2023-02-15T11:52:20.968Z,101050.66
2023-02-15T11:54:53.076Z,101057.16
2023-02-15T11:57:39.031Z,101063.66
2023-02-15T12:00:14.126Z,101055.19
2023-02-15T12:02:45.768Z,101056.16
2023-02-15T12:05:18.367Z,101049.97
2023-02-15T12:07:50.533Z,101052.41
2023-02-15T12:10:23.465Z,101056.81
2023-02-15T12:13:10.879Z,101053.22
2023-02-15T12:15:38.780Z,101059.22
2023-02-15T12:18:06.934Z,101049.47
2023-02-15T12:20:35.396Z,101051.91
2023-02-15T12:23:05.401Z,101057.25
2023-02-15T12:25:55.437Z,101046.84
2023-02-15T12:28:39.695Z,101057.06
2023-02-15T12:31:25.383Z,101050.72
2023-02-15T12:33:56.244Z,101048.78
2023-02-15T12:36:30.972Z,101062.59
2023-02-15T12:39:04.529Z,101053.97
2023-02-15T12:41:31.399Z,101057.56
2023-02-15T12:44:19.561Z,101056.72
2023-02-15T12:47:01.544Z,101045.19
2023-02-15T12:49:31.521Z,101038.03
2023-02-15T12:52:01.592Z,101052.84
2023-02-15T12:54:31.280Z,101056.53
2023-02-15T12:56:59.785Z,101052.50
2023-02-15T12:59:26.898Z,101036.25
2023-02-15T13:01:57.225Z,101044.38
2023-02-15T13:04:28.429Z,101037.72
2023-02-15T13:06:58.589Z,101046.03
2023-02-15T13:09:32.386Z,101041.78
2023-02-15T13:12:18.065Z,101037.06
2023-02-15T13:14:47.892Z,101031.53
2023-02-15T13:17:17.133Z,101020.97
2023-02-15T13:19:55.555Z,101026.66
2023-02-15T13:22:34.616Z,101024.16
2023-02-15T13:25:11.531Z,101019.94
2023-02-15T13:27:44.391Z,101023.50
2023-02-15T13:30:28.091Z,101022.34
2023-02-15T13:33:01.449Z,101029.84
2023-02-15T13:35:37.972Z,101031.34
2023-02-15T13:38:14.907Z,101022.22
2023-02-15T13:40:57.133Z,101030.50
2023-02-15T13:43:49.204Z,101023.81
2023-02-15T13:46:24.862Z,101024.81
2023-02-15T13:49:06.915Z,101015.69
2023-02-15T13:51:36.314Z,101023.16
2023-02-15T13:54:32.654Z,101003.50
2023-02-15T13:57:38.281Z,101002.50
2023-02-15T14:00:26.523Z,101021.50
2023-02-15T14:03:18.495Z,101011.25
2023-02-15T14:05:55.344Z,101004.78
2023-02-15T14:09:01.753Z,101008.84
2023-02-15T14:12:00.982Z,101008.19
2023-02-15T14:14:48.862Z,101001.16
2023-02-15T14:17:37.110Z,101007.16
2023-02-15T14:20:29.317Z,100997.75
2023-02-15T14:23:17.710Z,100999.34
2023-02-15T14:25:52.267Z,100992.22
2023-02-15T14:28:38.875Z,100994.97
2023-02-15T14:31:08.419Z,100993.00
2023-02-15T14:33:41.069Z,100995.44
2023-02-15T14:36:12.410Z,100984.84
2023-02-15T14:39:45.970Z,101003.06
2023-02-15T14:42:33.905Z,100997.88
2023-02-15T14:45:15.008Z,101012.16
2023-02-15T14:48:00.666Z,100998.00
2023-02-15T14:50:38.562Z,101005.66
2023-02-15T14:53:23.510Z,100998.47
2023-02-15T14:56:11.854Z,101003.00
2023-02-15T14:58:53.281Z,101010.97
2023-02-15T15:01:30.632Z,100997.63
2023-02-15T15:04:09.834Z,101000.03
2023-02-15T15:06:40.575Z,100998.09
2023-02-15T15:09:22.864Z,100999.56
2023-02-15T15:11:50.635Z,100996.69
2023-02-15T15:14:32.889Z,101004.47
2023-02-15T15:17:05.714Z,100997.00
2023-02-15T15:19:51.764Z,100993.41
2023-02-15T15:22:27.334Z,100989.38
2023-02-15T15:25:18.124Z,100984.50
2023-02-15T15:27:51.865Z,100984.38
2023-02-15T15:30:18.662Z,100990.22
2023-02-15T15:33:00.619Z,100976.75
2023-02-15T15:35:45.806Z,100969.13
2023-02-15T15:38:40.208Z,100976.59
2023-02-15T15:41:19.825Z,100961.84
2023-02-15T15:44:05.124Z,100965.72
2023-02-15T15:46:46.351Z,100969.97
2023-02-15T15:49:18.914Z,100961.53
2023-02-15T15:51:47.296Z,100968.53
2023-02-15T15:54:18.577Z,100963.81
2023-02-15T15:56:59.370Z,100964.63
2023-02-15T15:59:32.432Z,100969.03
2023-02-15T16:02:14.143Z,100955.69
2023-02-15T16:04:41.095Z,100954.22
2023-02-15T16:07:17.060Z,100944.44
2023-02-15T16:10:06.265Z,100942.13
2023-02-15T16:12:37.073Z,100935.94
2023-02-15T16:15:16.965Z,100931.22
2023-02-15T16:17:48.668Z,100930.75
2023-02-15T16:20:19.880Z,100927.19
2023-02-15T16:23:04.871Z,100926.22
2023-02-15T16:25:37.590Z,100920.06
2023-02-15T16:28:12.333Z,100916.72
2023-02-15T16:30:40.857Z,100917.38
2023-02-15T16:33:18.348Z,100914.81
2023-02-15T16:35:57.769Z,100910.25
2023-02-15T16:38:43.198Z,100904.59
2023-02-15T16:41:16.377Z,100906.09
2023-02-15T16:43:46.637Z,100909.50
2023-02-15T16:46:21.655Z,100914.22
2023-02-15T16:48:52.947Z,100912.94
2023-02-15T16:51:23.568Z,100918.78
2023-02-15T16:53:50.879Z,100902.53
2023-02-15T16:56:24.673Z,100913.94
2023-02-15T16:58:54.667Z,100915.06
2023-02-15T17:01:25.975Z,100902.41
2023-02-15T17:04:14.021Z,100903.88
2023-02-15T17:06:40.883Z,100906.50
2023-02-15T17:09:19.467Z,100895.78
2023-02-15T17:11:46.319Z,100895.78
2023-02-15T17:14:15.608Z,100899.19
2023-02-15T17:16:50.118Z,100884.09
2023-02-15T17:19:21.243Z,100891.91
2023-02-15T17:21:57.042Z,100882.69
2023-02-15T17:24:33.030Z,100892.75
2023-02-15T17:27:05.105Z,100884.00
2023-02-15T17:29:45.569Z,100880.25
2023-02-15T17:32:23.265Z,100880.97
2023-02-15T17:35:09.581Z,100886.47
2023-02-15T17:37:39.195Z,100888.44
2023-02-15T17:40:25.803Z,100885.97
2023-02-15T17:42:53.292Z,100888.25
2023-02-15T17:45:21.298Z,100889.41
2023-02-15T17:47:49.900Z,100897.69
2023-02-15T17:50:25.670Z,100895.25
2023-02-15T17:52:54.004Z,100888.09
2023-02-15T17:55:39.254Z,100898.38
2023-02-15T17:58:15.675Z,100897.22
2023-02-15T18:01:07.967Z,100899.16
2023-02-15T18:04:09.521Z,100899.97
2023-02-15T18:06:58.188Z,100889.75
2023-02-15T18:09:44.277Z,100891.22
2023-02-15T18:12:19.464Z,100898.38
2023-02-15T18:14:46.211Z,100897.56
2023-02-15T18:17:17.238Z,100904.66
2023-02-15T18:19:46.874Z,100886.16
2023-02-15T18:22:16.917Z,100882.59
2023-02-15T18:24:44.115Z,100876.28
2023-02-15T18:27:13.472Z,100872.34
2023-02-15T18:29:40.869Z,100877.88
2023-02-15T18:32:10.965Z,100888.91
2023-02-15T18:34:40.221Z,100877.06
2023-02-15T18:37:15.672Z,100882.59
2023-02-15T18:39:49.554Z,100881.78
2023-02-15T18:42:27.532Z,100881.78
2023-02-15T18:44:57.427Z,100887.31
2023-02-15T18:47:24.422Z,100878.53
2023-02-15T18:49:51.271Z,100878.53
2023-02-15T18:52:26.252Z,100876.13
2023-02-15T18:54:59.903Z,100883.94
2023-02-15T18:57:28.377Z,100881.47
2023-02-15T18:59:55.307Z,100882.28
2023-02-15T19:02:22.115Z,100877.13
2023-02-15T19:04:48.819Z,100879.06
2023-02-15T19:07:22.034Z,100872.72
2023-02-15T19:09:52.702Z,100878.25
2023-02-15T19:12:22.310Z,100876.63
2023-02-15T19:14:51.339Z,100889.28
2023-02-15T19:17:21.144Z,100882.94
2023-02-15T19:19:48.403Z,100889.28
2023-02-15T19:22:17.134Z,100884.09
2023-02-15T19:24:46.081Z,100884.41
2023-02-15T19:27:24.864Z,100885.25
2023-02-15T19:29:52.872Z,100885.56
2023-02-15T19:32:19.724Z,100890.28
2023-02-15T19:34:46.795Z,100885.06
2023-02-15T19:37:34.457Z,100882.31
2023-02-15T19:40:03.998Z,100882.19
2023-02-15T19:42:32.511Z,100886.41
2023-02-15T19:44:59.233Z,100884.44
2023-02-15T19:47:28.208Z,100884.44
2023-02-15T19:50:00.852Z,100886.41
2023-02-15T19:52:27.712Z,100887.19
2023-02-15T19:54:56.550Z,100880.91
2023-02-15T19:57:23.794Z,100873.41
2023-02-15T19:59:50.531Z,100869.84
2023-02-15T20:02:20.287Z,100862.69
2023-02-15T20:04:47.115Z,100867.75
2023-02-15T20:07:25.421Z,100866.59
2023-02-15T20:09:52.712Z,100864.16
2023-02-15T20:12:27.008Z,100855.06
2023-02-15T20:14:53.909Z,100851.84
2023-02-15T20:17:22.436Z,100853.78
2023-02-15T20:19:49.193Z,100846.63
2023-02-15T20:22:27.363Z,100843.09
2023-02-15T20:24:56.400Z,100845.84
2023-02-15T20:27:24.162Z,100844.22
2023-02-15T20:29:55.884Z,100854.44
2023-02-15T20:32:23.947Z,100853.63
2023-02-15T20:34:51.380Z,100844.56
2023-02-15T20:37:28.960Z,100842.13
2023-02-15T20:39:56.073Z,100843.75
2023-02-15T20:42:22.931Z,100836.28
2023-02-15T20:44:50.858Z,100832.72
2023-02-15T20:47:18.532Z,100831.56
2023-02-15T20:49:45.503Z,100831.56
2023-02-15T20:52:20.488Z,100826.84
2023-02-15T20:54:49.642Z,100828.47
2023-02-15T20:57:16.949Z,100830.06
2023-02-15T20:59:43.909Z,100821.00
2023-02-15T21:02:23.982Z,100819.84
2023-02-15T21:04:51.231Z,100819.84
2023-02-15T21:07:20.593Z,100817.91
2023-02-15T21:09:51.063Z,100806.06
2023-02-15T21:12:22.966Z,100803.28
2023-02-15T21:14:52.107Z,100800.88
2023-02-15T21:17:20.430Z,100805.59
2023-02-15T21:19:47.280Z,100788.22
2023-02-15T21:22:15.895Z,100791.31
2023-02-15T21:24:50.972Z,100788.09
2023-02-15T21:27:17.983Z,100792.44
2023-02-15T21:29:45.343Z,100778.66
2023-02-15T21:32:12.256Z,100769.09
2023-02-15T21:34:41.209Z,100769.75
2023-02-15T21:37:28.527Z,100761.00
2023-02-15T21:39:56.688Z,100753.06
2023-02-15T21:42:42.014Z,100745.91
2023-02-15T21:45:38.363Z,100741.06
2023-02-15T21:48:05.318Z,100743.34
2023-02-15T21:50:51.150Z,100741.72
2023-02-15T21:53:27.935Z,100732.97
2023-02-15T21:55:57.705Z,100733.78
2023-02-15T21:58:27.248Z,100719.16
2023-02-15T22:00:55.683Z,100710.72
2023-02-15T22:03:30.021Z,100712.72
2023-02-15T22:05:57.308Z,100714.66
2023-02-15T22:08:24.219Z,100705.56
2023-02-15T22:10:51.554Z,100706.69
2023-02-15T22:13:30.089Z,100702.66
2023-02-15T22:15:57.497Z,100693.41
2023-02-15T22:18:27.263Z,100685.94
2023-02-15T22:20:58.181Z,100685.13
2023-02-15T22:23:24.889Z,100676.53
2023-02-15T22:25:55.219Z,100674.59
2023-02-15T22:28:28.128Z,100672.66
2023-02-15T22:30:54.850Z,100671.03
2023-02-15T22:33:32.734Z,100662.25
2023-02-15T22:35:59.911Z,100652.69
2023-02-15T22:38:27.010Z,100655.44
2023-02-15T22:40:56.635Z,100648.63
2023-02-15T22:43:53.125Z,100643.78
2023-02-15T22:46:26.169Z,100631.13
2023-02-15T22:48:53.173Z,100635.03
2023-02-15T22:51:23.591Z,100638.94
2023-02-15T22:53:52.297Z,100635.69
2023-02-15T22:56:26.792Z,100628.09
2023-02-15T22:59:00.737Z,100624.53
2023-02-15T23:01:31.284Z,100626.81
2023-02-15T23:03:58.136Z,100635.41
2023-02-15T23:06:25.141Z,100632.16
2023-02-15T23:08:52.152Z,100621.13
2023-02-15T23:11:19.066Z,100627.47
2023-02-15T23:13:48.168Z,100617.59
2023-02-15T23:16:17.912Z,100614.03
2023-02-15T23:18:46.798Z,100616.28
2023-02-15T23:21:16.456Z,100614.34
2023-02-15T23:23:45.278Z,100613.06
2023-02-15T23:26:19.801Z,100598.78
2023-02-15T23:28:47.167Z,100594.41
2023-02-15T23:31:42.430Z,100587.31
2023-02-15T23:34:35.467Z,100578.06
2023-02-15T23:37:02.240Z,100585.84
2023-02-15T23:39:47.504Z,100578.06
2023-02-15T23:42:18.129Z,100570.94
2023-02-15T23:44:46.706Z,100580.69
2023-02-15T23:47:44.397Z,100565.28
2023-02-15T23:50:28.739Z,100566.75
2023-02-15T23:52:58.183Z,100556.38
2023-02-15T23:55:35.289Z,100546.03
2023-02-15T23:58:07.122Z,100557.03
